< Typhoon 196012 1960 Season Typhoon 196014 >
Typhoon 196013 (AGNES)
General InformationTrack Information on Google Maps || NewsDisaster Info.ResourceGoogle EarthGE AnimationAtom FeedGeoJSON
Detalied Best Track (Time Zone = UTC)
Year Month Day Hour Lat. Long. Pressure (hPa) Wind (kt) Class Image Chart
1960 8 10 00 21.0 126.0 1002 0 2 -- Chart
1960 8 10 06 22.0 126.0 1000 0 2 -- Chart
1960 8 10 12 21.7 128.0 1002 0 2 -- Chart
1960 8 10 18 21.0 130.0 1000 0 2 -- Chart
1960 8 11 00 20.0 131.0 1000 0 2 -- Chart
1960 8 11 06 20.1 132.0 1000 0 2 -- Chart
1960 8 11 12 20.4 132.2 998 0 2 -- Chart
1960 8 11 18 20.6 132.2 998 0 2 -- Chart
1960 8 12 00 21.0 132.0 998 0 9 -- Chart
1960 8 12 06 21.5 131.7 995 0 9 -- Chart
1960 8 12 12 22.1 131.0 995 0 9 -- Chart
1960 8 12 18 22.8 130.1 995 0 9 -- Chart
1960 8 13 00 23.0 129.4 994 0 9 -- Chart
1960 8 13 06 23.3 128.5 994 0 9 -- Chart
1960 8 13 12 23.9 127.1 994 0 9 -- Chart
1960 8 13 18 24.3 125.0 994 0 9 -- Chart
1960 8 14 00 24.3 123.5 994 0 2 -- Chart
1960 8 14 06 24.1 121.9 994 0 2 -- Chart
1960 8 14 12 23.6 120.1 994 0 2 -- Chart
1960 8 14 18 23.0 119.0 996 0 2 -- Chart
1960 8 15 00 22.6 118.0 996 0 2 -- Chart
1960 8 15 06 22.1 117.5 996 0 2 -- Chart
1960 8 15 12 21.6 116.7 996 0 2 -- Chart
1960 8 15 18 21.4 116.0 996 0 2 -- Chart
1960 8 16 00 21.0 115.0 998 0 2 -- Chart
1960 8 16 06 20.0 112.0 996 0 2 -- Chart
1960 8 16 12 20.2 110.3 998 0 2 -- Chart
1960 8 16 18 20.0 109.0 998 0 2 -- Chart
1960 8 17 00 20.0 108.0 998 0 2 -- Chart
1960 8 17 06 20.0 107.5 998 0 2 -- Chart
1960 8 17 12 20.0 107.3 998 0 2 -- Chart
1960 8 17 18 20.0 107.0 998 0 2 -- Chart
1960 8 18 00 19.5 106.5 1000 0 2 -- Chart
Japan Meteorological Agency Best Track Data | Correction Date : 1989-06-01
< Typhoon 196012 1960 Season Typhoon 196014 >

Help